Time;durP1;ratioP1;P1;durP2;ratioP2;P2;SDS_P1;SDS_P2;PMS_P1;PMS_P2;Temp;Humidity;BMP_temperature;BMP_pressure;BME280_temperature;BME280_humidity;BME280_pressure;Samples;Min_cycle;Max_cycle;Signal;HPM_P1;HPM_P2
2023/03/22 00:02:40;;;;;;;9.60;7.35;;;15.50;84.80;;;;;;4126610;28;20453;-65
2023/03/22 00:05:21;;;;;;;8.93;6.45;;;15.50;84.90;;;;;;4125746;28;20512;-65
2023/03/22 00:08:06;;;;;;;10.60;7.53;;;15.50;84.80;;;;;;4141866;28;20049;-65
2023/03/22 00:10:48;;;;;;;11.45;6.85;;;15.50;84.80;;;;;;4141587;28;20053;-65
2023/03/22 00:13:29;;;;;;;11.00;6.97;;;15.50;85.20;;;;;;4142608;28;20492;-65
2023/03/22 00:16:10;;;;;;;7.93;6.43;;;15.60;85.10;;;;;;4139788;28;20061;-65
2023/03/22 00:18:53;;;;;;;14.38;6.63;;;15.70;84.90;;;;;;4131599;28;20170;-65
2023/03/22 00:21:34;;;;;;;10.45;6.50;;;15.70;84.60;;;;;;4144163;28;20139;-66
2023/03/22 00:24:14;;;;;;;8.25;6.07;;;15.80;84.30;;;;;;4144610;28;20053;-65
2023/03/22 00:26:55;;;;;;;12.00;6.13;;;15.90;85.00;;;;;;4145590;28;20080;-66
2023/03/22 00:29:36;;;;;;;8.82;6.13;;;15.90;83.80;;;;;;4144190;28;20065;-63
2023/03/22 00:32:17;;;;;;;9.25;5.43;;;15.90;83.50;;;;;;4143327;28;20096;-62
2023/03/22 00:35:00;;;;;;;10.63;5.22;;;16.00;83.40;;;;;;4135558;28;20508;-63
2023/03/22 00:37:42;;;;;;;9.85;5.57;;;16.00;83.30;;;;;;4145772;28;20057;-62
2023/03/22 00:40:22;;;;;;;10.50;5.30;;;16.00;83.20;;;;;;4143586;28;20049;-63
2023/03/22 00:43:03;;;;;;;6.40;4.75;;;16.00;83.30;;;;;;4137763;28;20050;-62
2023/03/22 00:45:44;;;;;;;8.43;4.93;;;16.00;83.40;;;;;;4128782;28;20134;-62
2023/03/22 00:48:25;;;;;;;4.63;3.58;;;16.10;83.00;;;;;;4133560;28;20065;-61
2023/03/22 00:51:08;;;;;;;11.10;4.97;;;16.20;82.80;;;;;;4143953;28;20134;-62
2023/03/22 00:53:52;;;;;;;9.55;5.03;;;16.20;82.40;;;;;;4144074;28;20072;-62
2023/03/22 00:56:36;;;;;;;11.90;4.65;;;16.30;82.20;;;;;;4143725;28;20056;-61
2023/03/22 00:59:25;;;;;;;9.02;4.72;;;16.30;82.00;;;;;;4132051;28;20056;-65
2023/03/22 01:02:07;;;;;;;6.55;3.70;;;16.30;82.00;;;;;;4143235;28;20099;-65
2023/03/22 01:04:48;;;;;;;9.13;4.75;;;16.30;82.10;;;;;;4129900;28;20061;-65
2023/03/22 01:07:31;;;;;;;8.50;4.43;;;16.30;82.00;;;;;;4144790;28;20053;-65
2023/03/22 01:10:16;;;;;;;9.43;4.22;;;16.30;82.00;;;;;;4143777;28;20052;-65
2023/03/22 01:12:57;;;;;;;6.95;4.18;;;16.30;81.90;;;;;;4144688;28;20057;-65
2023/03/22 01:15:38;;;;;;;7.03;4.35;;;16.20;81.80;;;;;;4144780;28;20505;-65
2023/03/22 01:18:19;;;;;;;8.70;3.85;;;16.30;81.90;;;;;;4130674;28;20049;-65
2023/03/22 01:21:00;;;;;;;8.73;4.65;;;16.30;81.90;;;;;;4143630;28;20136;-66
2023/03/22 01:23:42;;;;;;;9.27;4.28;;;16.30;82.00;;;;;;4112545;28;20066;-62
2023/03/22 01:26:23;;;;;;;11.55;4.20;;;16.30;82.10;;;;;;4138521;28;20061;-63
2023/03/22 01:29:04;;;;;;;6.07;4.03;;;16.30;82.00;;;;;;4112032;28;20509;-62
2023/03/22 01:31:46;;;;;;;5.80;4.00;;;16.40;81.70;;;;;;4112804;28;20109;-62
2023/03/22 01:34:27;;;;;;;10.05;4.55;;;16.50;81.20;;;;;;4111640;28;20057;-62
2023/03/22 01:37:09;;;;;;;6.65;3.53;;;16.60;81.00;;;;;;4141813;28;20179;-63
2023/03/22 01:39:55;;;;;;;8.40;3.17;;;16.60;80.60;;;;;;4131920;28;20060;-63
2023/03/22 01:42:36;;;;;;;6.60;3.78;;;16.60;80.40;;;;;;4137552;28;20451;-63
2023/03/22 01:45:42;;;;;;;6.32;3.78;;;16.60;80.40;;;;;;4131807;28;20057;-63
2023/03/22 01:48:27;;;;;;;4.82;3.70;;;16.60;80.50;;;;;;4142405;28;20049;-63
2023/03/22 01:51:11;;;;;;;7.15;3.80;;;16.70;81.40;;;;;;4127066;28;20053;-63
2023/03/22 01:54:23;;;;;;;6.10;3.63;;;16.70;80.20;;;;;;4128080;28;20096;-62
2023/03/22 01:57:06;;;;;;;6.15;3.50;;;16.70;80.00;;;;;;4121690;28;20053;-62
2023/03/22 01:59:53;;;;;;;9.27;3.67;;;16.80;79.80;;;;;;4142482;28;20078;-62
2023/03/22 02:02:53;;;;;;;6.57;3.03;;;16.70;79.70;;;;;;4143543;28;20122;-63
2023/03/22 02:05:41;;;;;;;8.23;3.88;;;16.70;79.80;;;;;;4135369;28;20512;-62
2023/03/22 02:08:23;;;;;;;5.03;2.33;;;16.70;79.80;;;;;;4141371;28;20053;-63
2023/03/22 02:11:16;;;;;;;7.85;3.40;;;16.70;79.70;;;;;;4126327;28;20053;-62
2023/03/22 02:14:34;;;;;;;5.78;2.83;;;16.70;79.50;;;;;;4134810;28;20205;-63
2023/03/22 02:17:50;;;;;;;7.70;2.42;;;16.70;79.50;;;;;;4140302;28;20068;-63
2023/03/22 02:21:02;;;;;;;5.90;2.88;;;16.70;79.70;;;;;;4127013;28;20402;-63
2023/03/22 02:24:14;;;;;;;5.00;2.50;;;16.60;79.80;;;;;;4132977;28;20065;-63
2023/03/22 02:27:21;;;;;;;6.75;2.60;;;16.60;80.00;;;;;;4132814;28;20504;-63
2023/03/22 02:30:25;;;;;;;4.60;1.83;;;16.50;80.40;;;;;;4132820;28;20040;-63
2023/03/22 02:33:31;;;;;;;7.47;2.40;;;16.50;80.60;;;;;;4142162;28;20052;-63
2023/03/22 02:36:41;;;;;;;8.73;2.38;;;16.60;80.30;;;;;;4142150;28;20096;-65
2023/03/22 02:39:41;;;;;;;5.90;1.80;;;16.70;80.10;;;;;;4143493;28;20053;-66
2023/03/22 02:42:38;;;;;;;5.38;2.63;;;16.70;80.00;;;;;;4140765;28;20065;-66
2023/03/22 02:45:27;;;;;;;7.72;2.33;;;16.70;79.80;;;;;;4127668;28;20512;-66
2023/03/22 02:48:13;;;;;;;6.45;2.20;;;16.80;79.70;;;;;;4126833;28;20061;-66
2023/03/22 02:50:57;;;;;;;4.40;2.10;;;16.80;79.50;;;;;;4127033;28;20045;-66
2023/03/22 02:53:43;;;;;;;5.68;1.90;;;16.80;79.60;;;;;;4126870;28;20450;-66
2023/03/22 02:56:30;;;;;;;5.07;1.80;;;16.80;80.30;;;;;;4132315;28;20169;-65
2023/03/22 02:59:15;;;;;;;4.45;1.73;;;16.80;79.20;;;;;;4110835;28;20093;-65
2023/03/22 03:01:58;;;;;;;4.78;1.85;;;16.90;79.20;;;;;;4109887;28;20124;-65
2023/03/22 03:04:45;;;;;;;7.57;2.03;;;16.80;79.20;;;;;;4125753;28;20053;-65
2023/03/22 03:07:30;;;;;;;5.25;2.00;;;16.80;79.20;;;;;;4127093;28;20547;-66
2023/03/22 03:10:13;;;;;;;5.15;1.67;;;16.80;79.40;;;;;;4127147;28;20061;-65
2023/03/22 03:12:58;;;;;;;9.30;2.35;;;16.70;79.40;;;;;;4138447;28;20512;-66
2023/03/22 03:15:41;;;;;;;8.30;2.13;;;16.70;79.60;;;;;;4138714;28;20065;-64
2023/03/22 03:18:36;;;;;;;9.77;2.05;;;16.60;79.80;;;;;;4139300;28;20057;-65
2023/03/22 03:21:28;;;;;;;7.50;1.55;;;16.50;79.80;;;;;;4141030;28;20048;-65
2023/03/22 03:24:20;;;;;;;6.90;1.70;;;16.50;80.30;;;;;;4127101;28;20118;-65
2023/03/22 03:27:06;;;;;;;5.75;1.75;;;16.50;80.50;;;;;;4140635;28;20416;-65
2023/03/22 03:29:53;;;;;;;5.80;1.60;;;16.60;80.40;;;;;;4142069;28;20061;-66
2023/03/22 03:32:42;;;;;;;7.97;1.67;;;16.70;79.80;;;;;;4126911;28;20605;-65
2023/03/22 03:35:29;;;;;;;6.65;1.60;;;16.70;79.50;;;;;;4129453;28;20048;-65
2023/03/22 03:38:14;;;;;;;6.13;2.08;;;16.80;80.20;;;;;;4129470;28;20120;-65
2023/03/22 03:40:59;;;;;;;3.28;1.50;;;16.80;79.30;;;;;;4135858;28;20095;-65
2023/03/22 03:43:41;;;;;;;10.07;1.95;;;16.90;79.20;;;;;;4142837;28;20056;-65
2023/03/22 03:46:23;;;;;;;6.45;1.70;;;16.90;79.00;;;;;;4143006;28;20117;-65
2023/03/22 03:49:04;;;;;;;5.47;2.00;;;16.80;78.90;;;;;;4142883;28;20149;-65
2023/03/22 03:51:48;;;;;;;5.07;1.95;;;16.90;79.00;;;;;;4136439;28;20065;-65
2023/03/22 03:54:29;;;;;;;9.50;2.15;;;16.80;78.90;;;;;;4134444;28;20123;-65
2023/03/22 03:57:10;;;;;;;3.58;1.52;;;16.80;79.90;;;;;;4144728;28;20076;-64
2023/03/22 03:59:51;;;;;;;5.25;1.88;;;16.80;79.20;;;;;;4144177;28;20609;-65
2023/03/22 04:02:44;;;;;;;11.15;2.38;;;16.70;79.50;;;;;;4145919;28;20049;-65
2023/03/22 04:05:42;;;;;;;5.07;1.70;;;16.70;79.80;;;;;;4144520;28;20504;-65
2023/03/22 04:08:23;;;;;;;7.53;1.85;;;16.70;79.60;;;;;;4145872;28;20053;-65
2023/03/22 04:11:04;;;;;;;5.57;2.53;;;16.70;79.50;;;;;;4130941;28;20049;-65
2023/03/22 04:13:46;;;;;;;6.22;2.05;;;16.80;79.30;;;;;;4117120;28;20053;-62
2023/03/22 04:16:32;;;;;;;5.85;2.13;;;16.80;79.30;;;;;;4129964;28;20061;-63
2023/03/22 04:19:15;;;;;;;5.00;2.10;;;16.80;79.10;;;;;;4133391;28;20057;-63
2023/03/22 04:21:56;;;;;;;5.45;1.85;;;16.80;79.10;;;;;;4144708;28;20107;-64
2023/03/22 04:24:38;;;;;;;6.45;2.05;;;16.80;79.00;;;;;;4145356;28;20065;-64
2023/03/22 04:27:20;;;;;;;9.52;2.83;;;16.80;79.00;;;;;;4134414;28;20128;-64
2023/03/22 04:30:17;;;;;;;12.80;2.55;;;16.80;79.00;;;;;;4143865;28;20397;-63
2023/03/22 04:33:14;;;;;;;5.75;2.30;;;16.80;79.10;;;;;;4145072;28;20061;-64
2023/03/22 04:36:19;;;;;;;8.82;2.22;;;16.70;79.40;;;;;;4131287;28;20504;-63
2023/03/22 04:39:19;;;;;;;6.68;2.30;;;16.70;79.50;;;;;;4145016;28;20821;-63
2023/03/22 04:42:10;;;;;;;8.55;2.30;;;16.80;79.40;;;;;;4144421;28;20091;-62
2023/03/22 04:44:51;;;;;;;6.43;2.33;;;16.70;80.10;;;;;;4132116;28;20045;-62
2023/03/22 04:47:33;;;;;;;7.57;2.25;;;16.80;79.20;;;;;;4145397;28;20631;-62
2023/03/22 04:50:17;;;;;;;5.82;2.95;;;16.70;79.20;;;;;;4144508;28;20184;-63
2023/03/22 04:53:05;;;;;;;2.97;2.15;;;16.80;79.50;;;;;;4143918;28;20184;-62
2023/03/22 04:55:47;;;;;;;6.82;2.63;;;16.80;79.50;;;;;;4145451;28;20045;-62
2023/03/22 04:58:29;;;;;;;6.18;2.70;;;16.80;79.10;;;;;;4143945;28;20057;-63
2023/03/22 05:01:12;;;;;;;4.68;3.15;;;16.90;78.90;;;;;;4138987;28;20160;-62
2023/03/22 05:03:55;;;;;;;7.28;3.30;;;16.90;78.70;;;;;;4122540;28;20401;-62
2023/03/22 05:06:36;;;;;;;14.18;4.22;;;16.90;78.70;;;;;;4128880;28;20057;-62
2023/03/22 05:09:27;;;;;;;4.60;3.25;;;16.90;78.80;;;;;;4140377;28;20056;-63
2023/03/22 05:12:08;;;;;;;8.30;4.13;;;16.80;78.70;;;;;;4129573;28;20054;-62
2023/03/22 05:14:54;;;;;;;7.03;4.22;;;16.80;78.90;;;;;;4112955;28;20405;-62
2023/03/22 05:17:40;;;;;;;7.90;3.83;;;16.70;79.00;;;;;;4149916;28;20535;-64
2023/03/22 05:20:21;;;;;;;6.05;4.10;;;16.70;79.20;;;;;;4145390;28;20094;-61
2023/03/22 05:23:13;;;;;;;9.13;3.83;;;16.60;79.40;;;;;;4144781;28;20107;-62
2023/03/22 05:26:00;;;;;;;8.38;4.38;;;16.60;79.70;;;;;;4145166;28;20049;-62
2023/03/22 05:28:41;;;;;;;8.55;4.47;;;16.70;80.40;;;;;;4143207;28;20112;-61
2023/03/22 05:31:33;;;;;;;7.93;4.43;;;16.70;79.30;;;;;;4152362;28;20115;-63
2023/03/22 05:34:15;;;;;;;5.80;4.57;;;16.80;79.00;;;;;;4142713;28;20049;-63
2023/03/22 05:36:56;;;;;;;6.32;4.78;;;16.90;78.90;;;;;;4143702;28;20057;-63
2023/03/22 05:39:44;;;;;;;7.28;4.97;;;16.90;78.60;;;;;;4144196;28;20057;-62
2023/03/22 05:42:26;;;;;;;10.13;4.57;;;16.90;78.40;;;;;;4159015;28;20499;-62
2023/03/22 05:45:09;;;;;;;8.63;5.50;;;16.90;78.30;;;;;;4154287;28;20508;-62
2023/03/22 05:47:50;;;;;;;8.40;5.15;;;16.90;78.20;;;;;;4142806;28;20618;-62
2023/03/22 05:50:34;;;;;;;8.98;6.22;;;16.90;78.30;;;;;;4142752;28;20056;-62
2023/03/22 05:53:15;;;;;;;11.90;6.00;;;16.80;78.40;;;;;;4143904;28;20053;-63
2023/03/22 05:56:04;;;;;;;8.32;5.63;;;16.80;78.70;;;;;;4142740;28;20061;-62
2023/03/22 05:58:51;;;;;;;7.32;5.43;;;16.80;78.80;;;;;;4143985;28;20049;-62
2023/03/22 06:01:38;;;;;;;12.77;6.18;;;16.90;78.60;;;;;;4112002;28;20062;-62
2023/03/22 06:04:33;;;;;;;9.55;5.65;;;16.90;78.20;;;;;;4110997;28;20509;-62
2023/03/22 06:07:20;;;;;;;13.68;6.97;;;17.00;79.00;;;;;;4110310;28;20101;-61
2023/03/22 06:10:07;;;;;;;8.88;6.50;;;16.90;78.00;;;;;;4127698;28;20057;-66
2023/03/22 06:12:49;;;;;;;12.02;6.43;;;16.90;78.30;;;;;;4127579;28;20523;-64
2023/03/22 06:15:39;;;;;;;8.60;5.60;;;17.00;78.70;;;;;;4126582;28;20140;-64
2023/03/22 06:18:29;;;;;;;13.95;6.88;;;17.00;78.80;;;;;;4127699;28;20128;-64
2023/03/22 06:21:16;;;;;;;9.93;7.10;;;17.00;78.40;;;;;;4136513;28;20057;-64
2023/03/22 06:23:57;;;;;;;12.80;6.93;;;17.10;78.10;;;;;;4111714;28;20049;-65
2023/03/22 06:26:39;;;;;;;10.23;6.78;;;17.00;77.90;;;;;;4127017;28;20062;-63
2023/03/22 06:29:20;;;;;;;10.63;6.72;;;17.00;78.70;;;;;;4110359;28;20072;-63
2023/03/22 06:32:06;;;;;;;6.45;4.35;;;17.00;77.90;;;;;;4110032;28;20409;-63
2023/03/22 06:34:46;;;;;;;9.07;4.43;;;16.90;78.20;;;;;;4111012;28;20077;-65
2023/03/22 06:37:28;;;;;;;8.80;3.08;;;16.90;77.80;;;;;;4123015;28;20710;-64
2023/03/22 06:40:10;;;;;;;11.23;5.97;;;17.00;77.40;;;;;;4128068;28;20049;-64
2023/03/22 06:42:51;;;;;;;10.15;2.83;;;17.10;76.90;;;;;;4122408;28;20104;-64
2023/03/22 06:45:32;;;;;;;10.23;6.05;;;17.10;76.70;;;;;;4136935;28;20057;-64
2023/03/22 06:48:16;;;;;;;7.68;5.18;;;17.10;76.50;;;;;;4142356;28;20053;-63
2023/03/22 06:51:09;;;;;;;9.52;5.82;;;17.10;76.50;;;;;;4127445;28;20060;-64
2023/03/22 06:53:50;;;;;;;13.85;6.38;;;17.10;76.20;;;;;;4141332;28;21974;-63
2023/03/22 06:56:31;;;;;;;6.10;3.72;;;17.10;76.10;;;;;;4125417;28;20181;-64
2023/03/22 06:59:14;;;;;;;7.03;4.82;;;17.00;76.10;;;;;;4146344;28;20053;-63
2023/03/22 07:01:55;;;;;;;7.20;6.15;;;16.90;76.00;;;;;;4127187;28;20131;-63
2023/03/22 07:04:37;;;;;;;11.25;7.30;;;16.80;75.90;;;;;;4143823;28;20065;-63
2023/03/22 07:07:18;;;;;;;6.20;4.88;;;16.80;76.00;;;;;;4141666;28;20056;-63
2023/03/22 07:09:59;;;;;;;10.85;5.20;;;16.70;76.10;;;;;;4142311;28;20417;-62
2023/03/22 07:12:40;;;;;;;6.57;5.15;;;16.70;76.20;;;;;;4117263;28;20178;-63
2023/03/22 07:15:27;;;;;;;11.05;6.97;;;16.70;76.10;;;;;;4111819;28;20053;-63
2023/03/22 07:18:15;;;;;;;7.70;4.93;;;16.70;75.90;;;;;;4127202;28;20568;-64
2023/03/22 07:20:57;;;;;;;7.88;5.95;;;16.70;75.90;;;;;;4136521;28;20437;-63
2023/03/22 07:23:39;;;;;;;3.75;2.88;;;16.70;75.90;;;;;;4141369;28;20052;-63
2023/03/22 07:26:25;;;;;;;9.05;6.07;;;16.70;75.70;;;;;;4137258;28;20057;-64
2023/03/22 07:29:08;;;;;;;7.03;4.07;;;16.70;75.70;;;;;;4136213;28;20500;-64
2023/03/22 07:31:50;;;;;;;5.00;3.65;;;16.60;75.60;;;;;;4141434;28;20041;-63
2023/03/22 07:34:38;;;;;;;9.35;5.97;;;16.60;75.40;;;;;;4133443;28;20065;-62
2023/03/22 07:37:27;;;;;;;8.98;5.03;;;16.60;75.30;;;;;;4141260;28;20068;-62
2023/03/22 07:40:09;;;;;;;6.97;4.10;;;16.60;75.20;;;;;;4141615;28;20485;-62
2023/03/22 07:42:51;;;;;;;8.00;3.88;;;16.60;75.10;;;;;;4121195;28;20054;-62
2023/03/22 07:45:57;;;;;;;7.22;3.80;;;16.60;75.00;;;;;;4127913;28;20189;-63
2023/03/22 07:48:58;;;;;;;6.72;3.47;;;16.60;75.00;;;;;;4125450;28;20065;-63
2023/03/22 07:51:58;;;;;;;8.32;5.10;;;16.50;74.90;;;;;;4123472;28;20133;-62
2023/03/22 07:54:41;;;;;;;7.93;4.90;;;16.50;74.90;;;;;;4124212;28;20149;-62
2023/03/22 07:57:22;;;;;;;4.82;3.40;;;16.40;75.00;;;;;;4150370;28;20409;-63
2023/03/22 08:00:14;;;;;;;11.73;3.65;;;16.40;75.30;;;;;;4138844;28;20410;-64
2023/03/22 08:02:55;;;;;;;9.88;5.03;;;16.40;75.30;;;;;;4140664;28;20090;-62
2023/03/22 08:06:07;;;;;;;9.48;4.95;;;16.50;74.90;;;;;;4158563;28;20056;-64
2023/03/22 08:08:48;;;;;;;8.18;5.18;;;16.50;74.80;;;;;;4142656;28;20098;-64
2023/03/22 08:11:31;;;;;;;10.38;5.50;;;16.50;74.90;;;;;;4145386;28;20060;-64
2023/03/22 08:14:12;;;;;;;8.23;5.55;;;16.50;75.00;;;;;;4135066;28;20492;-63
2023/03/22 08:16:53;;;;;;;9.38;4.85;;;16.60;75.20;;;;;;4138803;28;20065;-63
2023/03/22 08:19:36;;;;;;;11.02;4.72;;;16.50;75.30;;;;;;4128054;28;20064;-65
2023/03/22 08:22:24;;;;;;;11.75;5.78;;;16.50;75.50;;;;;;4146395;28;20504;-64
2023/03/22 08:25:43;;;;;;;9.27;5.25;;;16.50;75.60;;;;;;4095698;28;20062;-64
2023/03/22 08:28:27;;;;;;;11.05;4.30;;;16.50;75.90;;;;;;4079667;28;20159;-63
2023/03/22 08:31:12;;;;;;;10.57;4.43;;;16.50;76.10;;;;;;4132897;28;20410;-63
2023/03/22 08:33:56;;;;;;;7.78;3.25;;;16.40;76.10;;;;;;4145550;28;20170;-65
2023/03/22 08:36:37;;;;;;;6.13;3.47;;;16.40;76.30;;;;;;4150991;28;20060;-60
2023/03/22 08:39:20;;;;;;;13.70;3.10;;;16.30;75.90;;;;;;4131453;28;20183;-61
2023/03/22 08:42:09;;;;;;;4.63;2.75;;;16.30;75.50;;;;;;4139482;28;20061;-61
2023/03/22 08:44:52;;;;;;;4.85;2.90;;;16.30;75.20;;;;;;4150664;28;20400;-61
2023/03/22 08:47:36;;;;;;;6.70;3.60;;;16.20;75.00;;;;;;4141878;28;20052;-61
2023/03/22 08:50:20;;;;;;;5.43;4.00;;;16.20;75.10;;;;;;4152787;28;20094;-61
2023/03/22 08:53:20;;;;;;;5.82;2.60;;;16.20;75.10;;;;;;4148530;28;20052;-60
2023/03/22 08:56:10;;;;;;;9.63;3.75;;;16.10;76.30;;;;;;4148860;28;20052;-60
2023/03/22 08:58:59;;;;;;;7.22;2.80;;;16.10;76.60;;;;;;4148104;28;20480;-62
2023/03/22 09:01:50;;;;;;;6.15;3.00;;;16.10;77.10;;;;;;4149904;28;20060;-60
2023/03/22 09:04:31;;;;;;;5.25;2.97;;;16.10;78.00;;;;;;4139709;28;20176;-62
2023/03/22 09:07:12;;;;;;;7.55;2.95;;;16.10;77.40;;;;;;4143089;28;20057;-62
2023/03/22 09:09:57;;;;;;;6.32;3.33;;;16.10;78.10;;;;;;4139045;28;20060;-63
2023/03/22 09:12:39;;;;;;;5.03;2.83;;;16.00;76.90;;;;;;4142400;28;20135;-65
2023/03/22 09:15:20;;;;;;;;;;;16.00;76.80;;;;;;4145719;28;20064;-66
2023/03/22 09:18:18;;;;;;;8.75;2.92;;;16.00;76.70;;;;;;4128118;28;20289;-67
2023/03/22 09:20:59;;;;;;;5.38;2.90;;;15.90;77.40;;;;;;4140663;28;20061;-66
2023/03/22 09:23:46;;;;;;;6.25;2.92;;;15.90;76.50;;;;;;4141920;28;20352;-66
2023/03/22 09:26:30;;;;;;;7.50;3.00;;;15.90;76.60;;;;;;4143672;28;20057;-67
2023/03/22 09:29:11;;;;;;;;;;;15.90;76.60;;;;;;4142981;28;20544;-67
2023/03/22 09:31:53;;;;;;;6.07;3.00;;;15.90;76.80;;;;;;4139114;28;19932;-66
2023/03/22 09:34:40;;;;;;;8.43;2.50;;;15.80;76.70;;;;;;4146877;28;20088;-66
2023/03/22 09:37:29;;;;;;;6.05;2.92;;;15.80;76.60;;;;;;4143893;28;20075;-67
2023/03/22 09:40:12;;;;;;;9.68;2.78;;;15.80;76.70;;;;;;4131076;28;20100;-66
2023/03/22 09:42:55;;;;;;;2.60;1.88;;;15.80;76.80;;;;;;4144844;28;20160;-67
2023/03/22 09:45:41;;;;;;;7.00;2.88;;;15.80;76.90;;;;;;4152735;28;20503;-67
2023/03/22 09:48:28;;;;;;;2.28;1.65;;;15.80;76.70;;;;;;4148877;28;20187;-65
2023/03/22 09:51:23;;;;;;;8.52;3.08;;;15.70;76.50;;;;;;4150482;28;20053;-65
2023/03/22 09:54:11;;;;;;;6.93;3.03;;;15.70;76.40;;;;;;4146259;28;20061;-64
2023/03/22 09:56:57;;;;;;;3.35;2.20;;;15.70;76.40;;;;;;4141835;28;20061;-64
2023/03/22 09:59:44;;;;;;;3.10;1.60;;;15.70;76.30;;;;;;4142119;28;20139;-64
2023/03/22 10:02:39;;;;;;;4.00;1.77;;;15.70;76.20;;;;;;4141716;28;20053;-63
2023/03/22 10:05:29;;;;;;;5.63;2.38;;;15.70;77.10;;;;;;4145092;28;20045;-65
2023/03/22 10:08:25;;;;;;;8.57;2.30;;;15.70;76.30;;;;;;4152687;28;20424;-64
2023/03/22 10:11:16;;;;;;;5.53;3.20;;;15.70;77.20;;;;;;4156655;28;20060;-64
2023/03/22 10:14:06;;;;;;;9.32;2.50;;;15.60;76.40;;;;;;4147393;28;20067;-65
2023/03/22 10:16:48;;;;;;;5.25;1.85;;;15.60;76.20;;;;;;4153647;28;20052;-64
2023/03/22 10:19:35;;;;;;;2.50;1.90;;;15.60;76.10;;;;;;4154285;28;20554;-65
2023/03/22 10:22:19;;;;;;;5.65;2.08;;;15.60;76.00;;;;;;4141176;28;20053;-64
2023/03/22 10:25:02;;;;;;;4.68;2.13;;;15.60;75.90;;;;;;4142560;28;20057;-64
2023/03/22 10:27:44;;;;;;;7.25;2.13;;;15.50;75.80;;;;;;4151464;28;20068;-64
2023/03/22 10:30:29;;;;;;;2.25;1.75;;;15.50;75.90;;;;;;4143865;28;20052;-64
2023/03/22 10:33:16;;;;;;;3.70;1.90;;;15.50;75.90;;;;;;4153067;28;20408;-65
2023/03/22 10:35:57;;;;;;;2.50;1.48;;;15.50;76.10;;;;;;4148699;28;20468;-64
2023/03/22 10:38:45;;;;;;;4.07;1.80;;;15.50;76.20;;;;;;4129033;28;20073;-64
2023/03/22 10:41:29;;;;;;;3.08;1.58;;;15.50;76.50;;;;;;4136175;28;20053;-64
2023/03/22 10:44:17;;;;;;;3.50;1.73;;;15.40;76.60;;;;;;4142458;28;20515;-64
2023/03/22 10:47:05;;;;;;;3.97;2.33;;;15.40;76.80;;;;;;4141864;28;20064;-64
2023/03/22 10:49:53;;;;;;;5.75;2.00;;;15.40;77.00;;;;;;4153081;28;20056;-64
2023/03/22 10:52:41;;;;;;;5.40;2.50;;;15.40;77.20;;;;;;4152037;28;20539;-64
2023/03/22 10:55:24;;;;;;;3.42;1.35;;;15.40;77.50;;;;;;4141235;28;20057;-64
2023/03/22 10:58:13;;;;;;;3.55;1.50;;;15.40;78.70;;;;;;4146931;28;20056;-61
2023/03/22 11:00:58;;;;;;;3.75;1.73;;;15.40;78.00;;;;;;4147564;28;20065;-66
2023/03/22 11:03:41;;;;;;;4.32;2.28;;;15.40;78.30;;;;;;4140530;28;20061;-64
2023/03/22 11:06:25;;;;;;;2.90;2.17;;;15.50;79.20;;;;;;4144537;28;20056;-64
2023/03/22 11:09:12;;;;;;;6.22;2.42;;;15.50;78.30;;;;;;4125761;28;20185;-67
2023/03/22 11:11:55;;;;;;;5.35;2.75;;;15.50;78.30;;;;;;4125821;28;20049;-64
2023/03/22 11:14:42;;;;;;;5.13;1.73;;;15.60;78.40;;;;;;4141108;28;20393;-64
2023/03/22 11:17:25;;;;;;;4.10;1.98;;;15.60;78.40;;;;;;4146757;28;20060;-65
2023/03/22 11:20:14;;;;;;;5.80;2.30;;;15.60;78.50;;;;;;4141792;28;20060;-64
2023/03/22 11:22:59;;;;;;;2.50;2.00;;;15.60;78.50;;;;;;4140033;28;20088;-64
2023/03/22 11:25:46;;;;;;;5.38;2.55;;;15.70;78.50;;;;;;4123017;28;20496;-65
2023/03/22 11:28:32;;;;;;;5.90;2.58;;;15.70;78.40;;;;;;4125763;28;20205;-64
2023/03/22 11:31:17;;;;;;;3.30;2.22;;;15.70;78.30;;;;;;4151527;28;20059;-64
2023/03/22 11:33:59;;;;;;;5.88;2.40;;;15.70;78.30;;;;;;4141029;28;20488;-65
2023/03/22 11:36:46;;;;;;;6.15;1.95;;;15.80;78.30;;;;;;4141182;28;20076;-64
2023/03/22 11:39:31;;;;;;;6.65;2.35;;;15.80;78.30;;;;;;4145551;28;20103;-64
2023/03/22 11:42:20;;;;;;;5.57;2.27;;;15.80;78.30;;;;;;4154880;28;20126;-64
2023/03/22 11:45:01;;;;;;;5.10;2.35;;;15.70;78.30;;;;;;4151208;28;20288;-64
2023/03/22 11:47:44;;;;;;;7.88;2.25;;;15.70;78.40;;;;;;4140665;28;20053;-64
2023/03/22 11:50:28;;;;;;;3.80;2.00;;;15.80;78.40;;;;;;4139722;28;20397;-62
2023/03/22 11:53:15;;;;;;;5.72;2.28;;;15.70;78.50;;;;;;4141262;28;20401;-64
2023/03/22 11:55:57;;;;;;;6.00;2.30;;;15.80;78.60;;;;;;4140553;28;20104;-64
2023/03/22 11:58:54;;;;;;;2.58;1.50;;;15.80;78.70;;;;;;4145254;28;20143;-64
2023/03/22 12:01:41;;;;;;;4.68;2.38;;;15.70;78.80;;;;;;4139450;28;20064;-64
2023/03/22 12:04:27;;;;;;;6.35;2.38;;;15.70;79.00;;;;;;4140690;28;20053;-64
2023/03/22 12:07:15;;;;;;;3.72;2.10;;;15.70;79.10;;;;;;4150602;28;20045;-62
2023/03/22 12:10:01;;;;;;;4.93;2.30;;;15.70;79.10;;;;;;4147941;28;20507;-63
2023/03/22 12:12:49;;;;;;;3.88;1.80;;;15.70;78.90;;;;;;4146223;28;20060;-64
2023/03/22 12:15:34;;;;;;;5.32;1.75;;;15.80;78.90;;;;;;4143368;28;20060;-64
2023/03/22 12:18:19;;;;;;;6.38;2.28;;;15.80;78.90;;;;;;4144514;28;20072;-64
2023/03/22 12:21:02;;;;;;;5.03;1.67;;;15.80;78.90;;;;;;4126844;28;20100;-64
2023/03/22 12:23:42;;;;;;;7.70;2.22;;;15.80;79.60;;;;;;4146164;28;20143;-64
2023/03/22 12:26:27;;;;;;;3.88;2.22;;;15.80;78.90;;;;;;4145171;28;20052;-64
2023/03/22 12:29:15;;;;;;;5.85;2.33;;;15.80;79.80;;;;;;4142205;28;20056;-64
2023/03/22 12:32:02;;;;;;;6.30;1.90;;;15.80;78.80;;;;;;4146194;28;20527;-64
2023/03/22 12:34:47;;;;;;;3.78;1.75;;;15.80;78.90;;;;;;4152804;28;20412;-65
2023/03/22 12:37:35;;;;;;;3.60;1.80;;;15.80;78.80;;;;;;4142043;28;20496;-65
2023/03/22 12:40:22;;;;;;;5.05;1.63;;;15.90;78.70;;;;;;4148350;28;20160;-65
2023/03/22 12:43:09;;;;;;;4.32;1.50;;;15.90;78.50;;;;;;4143162;28;20045;-63
2023/03/22 12:45:54;;;;;;;2.75;1.67;;;16.00;78.40;;;;;;4142961;28;21022;-64
2023/03/22 12:48:41;;;;;;;4.90;1.67;;;16.00;78.30;;;;;;4152300;28;20512;-64
2023/03/22 12:51:24;;;;;;;4.78;1.70;;;16.10;78.30;;;;;;4142148;28;20053;-64
2023/03/22 12:54:12;;;;;;;4.07;1.83;;;16.10;78.30;;;;;;4142989;28;20061;-64
2023/03/22 12:56:54;;;;;;;3.38;2.47;;;16.10;78.20;;;;;;4147827;28;20172;-64
2023/03/22 12:59:36;;;;;;;3.00;1.80;;;16.10;78.00;;;;;;4158732;28;20087;-64
2023/03/22 13:02:23;;;;;;;3.45;1.67;;;16.20;77.90;;;;;;4157208;28;20056;-65
2023/03/22 13:05:08;;;;;;;6.18;2.28;;;16.20;77.70;;;;;;4149713;28;20049;-65
2023/03/22 13:07:54;;;;;;;4.40;2.28;;;16.20;77.80;;;;;;4158377;28;20914;-65
2023/03/22 13:10:57;;;;;;;3.17;1.77;;;16.20;77.80;;;;;;4125714;28;20057;-64
2023/03/22 13:13:44;;;;;;;6.22;2.10;;;16.20;77.90;;;;;;4124770;28;20409;-64
2023/03/22 13:16:57;;;;;;;5.43;1.98;;;16.20;77.90;;;;;;4126112;28;20132;-64
2023/03/22 13:19:39;;;;;;;3.53;1.95;;;16.20;78.10;;;;;;4125766;28;20061;-64
2023/03/22 13:22:25;;;;;;;6.50;1.98;;;16.30;77.90;;;;;;4143212;28;20512;-67
2023/03/22 13:25:27;;;;;;;5.95;2.45;;;16.30;77.80;;;;;;4156261;28;20520;-67
2023/03/22 13:28:23;;;;;;;;;;;16.30;77.60;;;;;;4143178;28;20424;-65
2023/03/22 13:31:05;;;;;;;8.15;2.65;;;16.40;78.60;;;;;;4145000;28;22372;-66
2023/03/22 13:33:53;;;;;;;5.38;2.08;;;16.30;77.70;;;;;;4157235;28;20499;-66
2023/03/22 13:36:36;;;;;;;4.85;2.20;;;16.30;77.80;;;;;;4158035;28;20615;-66
2023/03/22 13:39:18;;;;;;;6.07;2.88;;;16.30;77.80;;;;;;4155380;28;20186;-63
2023/03/22 13:42:07;;;;;;;3.35;2.42;;;16.40;78.00;;;;;;4147569;28;20135;-64
2023/03/22 13:44:57;;;;;;;4.88;1.80;;;16.30;77.90;;;;;;4153080;28;20471;-65
2023/03/22 13:47:44;;;;;;;5.18;2.10;;;16.30;78.00;;;;;;4156577;28;20519;-62
2023/03/22 13:50:29;;;;;;;3.70;1.55;;;16.30;78.10;;;;;;4150599;28;20056;-64
2023/03/22 13:53:20;;;;;;;1.67;1.58;;;16.30;78.20;;;;;;4149917;28;20044;-63
2023/03/22 13:56:04;;;;;;;3.83;2.00;;;16.20;78.50;;;;;;4148796;28;20064;-63
2023/03/22 13:58:52;;;;;;;2.58;2.05;;;16.30;78.50;;;;;;4148816;28;20135;-64
2023/03/22 14:01:37;;;;;;;4.65;1.88;;;16.30;78.30;;;;;;4154187;28;20112;-64
2023/03/22 14:04:25;;;;;;;6.93;2.22;;;16.40;78.20;;;;;;4141945;28;20401;-64
2023/03/22 14:07:25;;;;;;;4.07;1.90;;;16.40;79.10;;;;;;4141670;28;20107;-64
2023/03/22 14:10:15;;;;;;;11.20;1.92;;;16.40;78.20;;;;;;4147797;28;20110;-64
2023/03/22 14:13:02;;;;;;;5.57;2.10;;;16.40;78.10;;;;;;4142401;28;20172;-64
2023/03/22 14:15:49;;;;;;;4.43;2.58;;;16.40;78.00;;;;;;4150625;28;20123;-64
2023/03/22 14:18:33;;;;;;;5.00;1.77;;;16.40;78.00;;;;;;4126445;28;20095;-64
2023/03/22 14:21:18;;;;;;;4.95;2.22;;;16.40;78.90;;;;;;4126092;28;20405;-64
2023/03/22 14:24:02;;;;;;;6.55;2.25;;;16.40;78.10;;;;;;4126193;28;20168;-64
2023/03/22 14:26:44;;;;;;;4.13;1.80;;;16.30;78.30;;;;;;4147817;28;20056;-64